createdAt,value
2022-12-17T00:01:02.250Z,15.77
2022-12-17T00:04:25.384Z,22.23
2022-12-17T00:07:48.382Z,19.85
2022-12-17T00:11:11.384Z,19.05
2022-12-17T00:14:34.363Z,18.10
2022-12-17T00:17:57.073Z,18.10
2022-12-17T00:21:20.565Z,16.10
2022-12-17T00:24:43.512Z,16.83
2022-12-17T00:28:06.726Z,18.33
2022-12-17T00:31:29.818Z,18.15
2022-12-17T00:34:55.291Z,22.23
2022-12-17T00:38:19.758Z,19.45
2022-12-17T00:41:42.617Z,17.58
2022-12-17T00:45:06.585Z,19.23
2022-12-17T00:48:29.588Z,18.05
2022-12-17T00:51:52.332Z,17.15
2022-12-17T00:55:15.635Z,17.58
2022-12-17T00:58:39.720Z,17.67
2022-12-17T01:02:02.949Z,18.60
2022-12-17T01:05:26.537Z,17.40
2022-12-17T01:08:49.572Z,17.55
2022-12-17T01:12:13.012Z,19.00
2022-12-17T01:15:35.869Z,16.30
2022-12-17T01:18:58.664Z,17.67
2022-12-17T01:22:21.649Z,19.55
2022-12-17T01:25:44.258Z,21.73
2022-12-17T01:29:07.027Z,19.13
2022-12-17T01:32:29.504Z,19.80
2022-12-17T01:35:58.061Z,20.00
2022-12-17T01:39:23.962Z,19.17
2022-12-17T01:42:54.876Z,19.27
2022-12-17T01:46:18.387Z,20.45
2022-12-17T01:49:44.664Z,19.20
2022-12-17T01:53:09.518Z,17.98
2022-12-17T01:56:32.577Z,20.15
2022-12-17T02:00:16.665Z,19.58
2022-12-17T02:03:39.630Z,18.03
2022-12-17T02:07:56.253Z,21.85
2022-12-17T02:11:51.849Z,19.08
2022-12-17T02:15:46.553Z,22.60
2022-12-17T02:19:22.650Z,24.58
2022-12-17T02:23:04.797Z,27.42
2022-12-17T02:26:57.193Z,25.42
2022-12-17T02:30:24.735Z,22.83
2022-12-17T02:33:48.068Z,24.77
2022-12-17T02:37:11.159Z,22.65
2022-12-17T02:40:37.903Z,18.92
2022-12-17T02:44:01.202Z,20.02
2022-12-17T02:47:28.092Z,19.95
2022-12-17T02:50:52.076Z,19.20
2022-12-17T02:54:14.754Z,18.70
2022-12-17T02:57:43.548Z,22.52
2022-12-17T03:01:08.690Z,24.48
2022-12-17T03:04:33.105Z,21.85
2022-12-17T03:07:55.920Z,23.60
2022-12-17T03:11:18.687Z,25.48
2022-12-17T03:14:41.529Z,25.23
2022-12-17T03:18:04.472Z,29.42
2022-12-17T03:21:27.588Z,27.38
2022-12-17T03:24:50.481Z,27.95
2022-12-17T03:28:13.047Z,25.98
2022-12-17T03:31:35.785Z,25.92
2022-12-17T03:34:58.158Z,24.88
2022-12-17T03:38:25.641Z,23.33
2022-12-17T03:41:48.716Z,24.33
2022-12-17T03:45:11.518Z,24.25
2022-12-17T03:48:34.370Z,22.17
2022-12-17T03:51:56.981Z,20.92
2022-12-17T03:55:19.900Z,21.55
2022-12-17T03:58:42.768Z,23.10
2022-12-17T04:02:05.932Z,20.83
2022-12-17T04:05:28.986Z,24.05
2022-12-17T04:08:52.111Z,22.17
2022-12-17T04:12:15.098Z,23.30
2022-12-17T04:15:38.078Z,21.90
2022-12-17T04:19:01.122Z,22.10
2022-12-17T04:22:24.104Z,25.88
2022-12-17T04:25:46.912Z,28.65
2022-12-17T04:29:09.874Z,25.25
2022-12-17T04:32:35.337Z,22.85
2022-12-17T04:35:58.492Z,30.60
2022-12-17T04:39:21.364Z,25.77
2022-12-17T04:42:44.001Z,25.02
2022-12-17T04:46:08.867Z,20.77
2022-12-17T04:49:31.682Z,21.85
2022-12-17T04:52:54.580Z,21.70
2022-12-17T04:56:17.332Z,22.65
2022-12-17T04:59:40.163Z,20.45
2022-12-17T05:03:02.966Z,21.17
2022-12-17T05:06:30.136Z,21.67
2022-12-17T05:09:52.925Z,25.77
2022-12-17T05:13:19.870Z,26.50
2022-12-17T05:16:42.658Z,25.27
2022-12-17T05:20:05.318Z,25.67
2022-12-17T05:23:28.630Z,27.52
2022-12-17T05:26:51.479Z,28.00
2022-12-17T05:30:14.328Z,27.52
2022-12-17T05:33:37.330Z,26.38
2022-12-17T05:37:00.531Z,24.50
2022-12-17T05:40:24.532Z,22.33
2022-12-17T05:43:47.365Z,25.25
2022-12-17T05:47:09.958Z,26.17
2022-12-17T05:50:33.110Z,25.85
2022-12-17T05:53:55.864Z,25.27
2022-12-17T05:57:18.671Z,25.25
2022-12-17T06:00:41.762Z,23.08
2022-12-17T06:04:05.412Z,21.88
2022-12-17T06:07:28.362Z,22.17
2022-12-17T06:10:51.211Z,22.75
2022-12-17T06:14:13.886Z,26.85
2022-12-17T06:17:36.545Z,24.85
2022-12-17T06:21:00.123Z,23.13
2022-12-17T06:24:23.740Z,23.15
2022-12-17T06:27:46.698Z,24.13
2022-12-17T06:31:13.939Z,21.00
2022-12-17T06:34:37.127Z,22.50
2022-12-17T06:38:00.001Z,21.77
2022-12-17T06:41:22.628Z,22.85
2022-12-17T06:44:48.260Z,22.10
2022-12-17T06:48:11.646Z,23.23
2022-12-17T06:51:34.339Z,20.75
2022-12-17T06:54:56.893Z,23.20
2022-12-17T06:58:20.026Z,23.88
2022-12-17T07:01:43.449Z,23.55
2022-12-17T07:05:06.455Z,22.95
2022-12-17T07:08:29.218Z,24.13
2022-12-17T07:11:52.440Z,24.80
2022-12-17T07:15:15.171Z,23.15
2022-12-17T07:18:39.024Z,20.38
2022-12-17T07:22:01.758Z,24.77
2022-12-17T07:25:25.061Z,24.13
2022-12-17T07:28:47.888Z,21.90
2022-12-17T07:32:10.632Z,22.88
2022-12-17T07:35:33.312Z,23.60
2022-12-17T07:38:56.505Z,24.00
2022-12-17T07:42:19.220Z,22.70
2022-12-17T07:45:42.829Z,23.15
2022-12-17T07:49:05.700Z,21.83
2022-12-17T07:52:28.462Z,30.77
2022-12-17T07:55:51.127Z,27.15
2022-12-17T07:59:13.890Z,25.30
2022-12-17T08:02:36.771Z,25.33
2022-12-17T08:05:59.682Z,26.17
2022-12-17T08:09:23.749Z,27.90
2022-12-17T08:12:46.628Z,27.98
2022-12-17T08:16:12.346Z,27.05
2022-12-17T08:19:35.047Z,28.63
2022-12-17T08:22:57.952Z,28.58
2022-12-17T08:26:20.685Z,27.85
2022-12-17T08:29:43.629Z,29.83
2022-12-17T08:33:07.634Z,27.70
2022-12-17T08:36:30.893Z,27.40
2022-12-17T08:39:53.968Z,28.90
2022-12-17T08:43:17.114Z,27.52
2022-12-17T08:46:39.526Z,26.00
2022-12-17T08:50:02.436Z,27.05
2022-12-17T08:53:27.114Z,30.80
2022-12-17T08:56:52.753Z,31.73
2022-12-17T09:00:15.476Z,26.33
2022-12-17T09:03:38.591Z,27.55
2022-12-17T09:07:16.293Z,29.15
2022-12-17T09:10:39.643Z,28.73
2022-12-17T09:14:02.636Z,27.02
2022-12-17T09:17:25.389Z,25.60
2022-12-17T09:20:48.733Z,28.63
2022-12-17T09:24:11.981Z,27.17
2022-12-17T09:27:34.770Z,29.90
2022-12-17T09:31:04.935Z,28.30
2022-12-17T09:34:28.635Z,29.83
2022-12-17T09:37:51.786Z,29.30
2022-12-17T09:41:18.953Z,34.33
2022-12-17T09:44:54.053Z,29.35
2022-12-17T09:48:33.644Z,25.67
2022-12-17T09:51:57.147Z,28.42
2022-12-17T09:55:21.437Z,26.25
2022-12-17T09:58:47.987Z,25.65
2022-12-17T10:02:11.501Z,25.30
2022-12-17T10:05:45.219Z,25.77
2022-12-17T10:09:15.047Z,29.70
2022-12-17T10:12:39.935Z,26.77
2022-12-17T10:16:02.736Z,26.70
2022-12-17T10:19:55.502Z,29.42
2022-12-17T10:23:18.272Z,26.65
2022-12-17T10:26:49.888Z,30.30
2022-12-17T10:30:13.223Z,28.38
2022-12-17T10:33:40.707Z,25.85
2022-12-17T10:37:11.305Z,26.65
2022-12-17T10:41:04.853Z,31.60
2022-12-17T10:44:49.901Z,29.15
2022-12-17T10:51:42.718Z,33.00
2022-12-17T10:55:38.596Z,32.53
2022-12-17T10:59:06.029Z,32.00
2022-12-17T11:02:39.888Z,30.67
2022-12-17T11:06:03.400Z,30.33
2022-12-17T11:09:37.287Z,29.30
2022-12-17T11:13:13.646Z,30.67
2022-12-17T11:16:45.299Z,29.00
2022-12-17T11:20:19.705Z,36.67
2022-12-17T11:23:43.526Z,34.08
2022-12-17T11:27:12.483Z,30.38
2022-12-17T11:30:36.263Z,29.23
2022-12-17T11:34:16.984Z,25.98
2022-12-17T11:37:46.203Z,28.45
2022-12-17T11:41:23.144Z,29.17
2022-12-17T11:45:11.633Z,29.77
2022-12-17T11:48:49.028Z,31.27
2022-12-17T11:52:29.803Z,28.77
2022-12-17T11:56:16.067Z,31.05
2022-12-17T11:59:50.964Z,31.95
2022-12-17T12:03:53.136Z,33.22
2022-12-17T12:08:05.459Z,34.00
2022-12-17T12:11:41.908Z,32.28
2022-12-17T12:15:22.916Z,31.95
2022-12-17T12:19:16.175Z,28.63
2022-12-17T12:23:17.289Z,27.33
2022-12-17T12:26:45.968Z,31.98
2022-12-17T12:30:21.814Z,31.52
2022-12-17T12:34:02.813Z,31.90
2022-12-17T12:37:32.659Z,30.27
2022-12-17T12:41:10.829Z,31.88
2022-12-17T12:45:26.221Z,31.17
2022-12-17T12:48:57.497Z,39.25
2022-12-17T12:52:21.200Z,34.17
2022-12-17T12:56:00.401Z,29.52
2022-12-17T12:59:43.614Z,26.60
2022-12-17T13:03:06.745Z,25.48
2022-12-17T13:06:14.160Z,23.60
2022-12-17T13:09:32.322Z,30.48
2022-12-17T13:12:47.162Z,28.98
2022-12-17T13:15:59.248Z,29.65
2022-12-17T13:19:32.416Z,26.90
2022-12-17T13:22:37.172Z,28.23
2022-12-17T13:25:42.905Z,27.15
2022-12-17T13:29:11.820Z,26.05
2022-12-17T13:32:28.730Z,29.48
2022-12-17T13:36:22.628Z,34.70
2022-12-17T13:40:09.607Z,31.15
2022-12-17T13:43:21.159Z,36.25
2022-12-17T13:46:46.458Z,29.20
2022-12-17T13:50:31.722Z,31.95
2022-12-17T13:53:21.382Z,29.92
2022-12-17T13:56:36.549Z,25.63
2022-12-17T13:59:48.770Z,30.63
2022-12-17T14:02:54.949Z,34.53
2022-12-17T14:05:59.771Z,33.13
2022-12-17T14:09:05.310Z,32.40
2022-12-17T14:12:22.155Z,29.42
2022-12-17T14:15:31.945Z,25.40
2022-12-17T14:18:40.567Z,25.75
2022-12-17T14:21:45.325Z,28.35
2022-12-17T14:24:50.171Z,26.48
2022-12-17T14:28:06.371Z,31.95
2022-12-17T14:31:29.531Z,34.40
2022-12-17T14:34:42.279Z,28.67
2022-12-17T14:37:47.451Z,33.13
2022-12-17T14:40:52.800Z,30.13
2022-12-17T14:44:02.487Z,29.13
2022-12-17T14:47:17.734Z,29.98
2022-12-17T14:50:22.510Z,27.10
2022-12-17T14:53:28.156Z,29.67
2022-12-17T14:56:33.074Z,26.63
2022-12-17T14:59:39.344Z,30.73
2022-12-17T15:02:48.324Z,28.33
2022-12-17T15:06:16.556Z,39.45
2022-12-17T15:09:21.170Z,32.72
2022-12-17T15:12:25.757Z,36.10
2022-12-17T15:15:30.416Z,32.03
2022-12-17T15:18:35.385Z,27.80
2022-12-17T15:21:41.498Z,26.50
2022-12-17T15:24:45.949Z,27.70
2022-12-17T15:27:50.310Z,27.17
2022-12-17T15:30:54.769Z,25.15
2022-12-17T15:33:59.443Z,27.20
2022-12-17T15:37:03.883Z,26.85
2022-12-17T15:40:11.847Z,25.40
2022-12-17T15:43:16.490Z,25.75
2022-12-17T15:46:20.841Z,26.50
2022-12-17T15:49:25.176Z,25.75
2022-12-17T15:52:30.029Z,22.70
2022-12-17T15:55:35.799Z,24.67
2022-12-17T15:58:40.495Z,24.80
2022-12-17T16:01:45.611Z,24.40
2022-12-17T16:04:49.939Z,23.02
2022-12-17T16:07:58.909Z,25.35
2022-12-17T16:11:11.029Z,23.65
2022-12-17T16:14:15.888Z,25.77
2022-12-17T16:17:20.962Z,27.02
2022-12-17T16:20:25.508Z,26.65
2022-12-17T16:23:30.818Z,28.20
2022-12-17T16:26:35.448Z,28.17
2022-12-17T16:29:39.893Z,26.15
2022-12-17T16:32:44.692Z,26.42
2022-12-17T16:35:54.212Z,25.25
2022-12-17T16:38:58.913Z,23.58
2022-12-17T16:42:04.081Z,24.83
2022-12-17T16:45:09.553Z,24.20
2022-12-17T16:48:14.160Z,24.77
2022-12-17T16:51:28.517Z,24.40
2022-12-17T16:54:33.786Z,25.70
2022-12-17T16:57:38.111Z,23.95
2022-12-17T17:00:42.708Z,23.55
2022-12-17T17:03:48.230Z,24.55
2022-12-17T17:06:56.804Z,24.63
2022-12-17T17:10:01.510Z,25.60
2022-12-17T17:13:06.383Z,25.45
2022-12-17T17:16:12.130Z,25.13
2022-12-17T17:19:16.739Z,23.60
2022-12-17T17:22:21.614Z,24.20
2022-12-17T17:25:38.774Z,21.33
2022-12-17T17:28:51.828Z,25.05
2022-12-17T17:32:13.544Z,26.17
2022-12-17T17:35:18.990Z,25.77
2022-12-17T17:38:23.830Z,25.08
2022-12-17T17:41:30.365Z,21.92
2022-12-17T17:44:35.180Z,21.63
2022-12-17T17:47:39.852Z,22.50
2022-12-17T17:50:44.381Z,25.80
2022-12-17T17:53:52.122Z,27.00
2022-12-17T17:56:56.745Z,24.45
2022-12-17T18:00:01.483Z,24.33
2022-12-17T18:03:06.083Z,23.42
2022-12-17T18:06:13.481Z,21.40
2022-12-17T18:09:18.126Z,21.15
2022-12-17T18:12:42.178Z,20.58
2022-12-17T18:15:46.974Z,24.48
2022-12-17T18:19:04.260Z,26.67
2022-12-17T18:22:08.877Z,22.73
2022-12-17T18:25:13.387Z,25.70
2022-12-17T18:28:17.810Z,24.98
2022-12-17T18:31:25.862Z,26.05
2022-12-17T18:34:30.664Z,29.02
2022-12-17T18:37:35.824Z,26.95
2022-12-17T18:40:40.573Z,24.30
2022-12-17T18:43:45.173Z,25.95
2022-12-17T18:46:50.562Z,26.75
2022-12-17T18:49:55.061Z,29.70
2022-12-17T18:52:59.757Z,24.55
2022-12-17T18:56:10.582Z,22.17
2022-12-17T18:59:28.799Z,22.80
2022-12-17T19:02:34.148Z,22.73
2022-12-17T19:05:45.152Z,23.20
2022-12-17T19:08:51.685Z,20.85
2022-12-17T19:11:57.420Z,21.88
2022-12-17T19:15:02.212Z,23.65
2022-12-17T19:18:07.059Z,25.40
2022-12-17T19:21:16.380Z,24.30
2022-12-17T19:24:22.058Z,19.90
2022-12-17T19:27:26.598Z,23.35
2022-12-17T19:30:31.193Z,18.80
2022-12-17T19:33:36.691Z,18.35
2022-12-17T19:36:43.030Z,17.02
2022-12-17T19:39:47.609Z,17.67
2022-12-17T19:42:57.730Z,18.25
2022-12-17T19:46:08.178Z,20.80
2022-12-17T19:49:14.548Z,19.45
2022-12-17T19:52:19.263Z,20.52
2022-12-17T19:55:24.407Z,20.50
2022-12-17T19:58:29.323Z,19.92
2022-12-17T20:01:49.093Z,19.85
2022-12-17T20:04:54.211Z,20.15
2022-12-17T20:07:59.246Z,22.23
2022-12-17T20:11:29.110Z,31.60
2022-12-17T20:14:35.284Z,28.80
2022-12-17T20:17:40.095Z,27.77
2022-12-17T20:20:44.840Z,31.55
2022-12-17T20:23:50.314Z,24.02
2022-12-17T20:26:55.284Z,34.10
2022-12-17T20:30:00.207Z,25.73
2022-12-17T20:33:04.791Z,25.23
2022-12-17T20:36:15.571Z,20.73
2022-12-17T20:39:26.151Z,21.35
2022-12-17T20:42:31.933Z,22.25
2022-12-17T20:45:36.656Z,20.45
2022-12-17T20:48:43.315Z,23.27
2022-12-17T20:51:48.239Z,21.48
2022-12-17T20:54:53.139Z,20.55
2022-12-17T20:57:57.511Z,21.55
2022-12-17T21:01:09.139Z,23.60
2022-12-17T21:04:15.352Z,28.40
2022-12-17T21:07:19.922Z,27.80
2022-12-17T21:10:24.633Z,25.25
2022-12-17T21:13:29.828Z,24.50
2022-12-17T21:16:35.672Z,23.20
2022-12-17T21:19:39.987Z,24.90
2022-12-17T21:22:44.357Z,26.65
2022-12-17T21:26:10.507Z,21.70
2022-12-17T21:29:17.054Z,25.25
2022-12-17T21:32:21.638Z,27.02
2022-12-17T21:35:27.270Z,29.85
2022-12-17T21:38:32.708Z,27.42
2022-12-17T21:41:42.950Z,33.50
2022-12-17T21:44:49.865Z,26.15
2022-12-17T21:47:55.174Z,26.90
2022-12-17T21:51:00.465Z,28.90
2022-12-17T21:54:08.678Z,27.38
2022-12-17T21:57:15.667Z,26.05
2022-12-17T22:00:23.762Z,26.55
2022-12-17T22:03:28.393Z,32.33
2022-12-17T22:06:43.428Z,30.95
2022-12-17T22:10:05.758Z,31.38
2022-12-17T22:16:49.320Z,27.67
2022-12-17T22:19:54.533Z,27.80
2022-12-17T22:22:59.149Z,26.67
2022-12-17T22:26:10.482Z,31.75
2022-12-17T22:29:37.212Z,29.73
2022-12-17T22:33:00.630Z,27.63
2022-12-17T22:38:04.747Z,28.77
2022-12-17T22:43:51.400Z,25.50
2022-12-17T22:44:41.006Z,26.38
2022-12-17T22:46:40.928Z,22.70
2022-12-17T22:49:45.308Z,23.05
2022-12-17T22:52:49.827Z,20.77
2022-12-17T22:55:55.380Z,22.63
2022-12-17T22:59:01.481Z,23.60
2022-12-17T23:02:08.066Z,25.15
2022-12-17T23:05:12.817Z,25.20
2022-12-17T23:08:17.620Z,24.67
2022-12-17T23:11:25.341Z,25.60
2022-12-17T23:14:29.646Z,24.85
2022-12-17T23:17:35.411Z,22.30
2022-12-17T23:20:39.909Z,19.95
2022-12-17T23:23:45.620Z,20.33
2022-12-17T23:26:50.524Z,20.55
2022-12-17T23:29:54.848Z,19.10
2022-12-17T23:32:59.384Z,20.85
2022-12-17T23:36:06.757Z,21.25
2022-12-17T23:39:11.685Z,22.88
2022-12-17T23:42:16.151Z,24.23
2022-12-17T23:45:20.320Z,22.58
2022-12-17T23:48:28.242Z,21.48
2022-12-17T23:51:34.166Z,22.33
2022-12-17T23:54:38.646Z,20.42
2022-12-17T23:57:43.310Z,18.48
